createdAt,value
2023-02-17T00:00:39.375Z,100490.31
2023-02-17T00:03:20.987Z,100479.50
2023-02-17T00:05:50.951Z,100478.81
2023-02-17T00:08:18.225Z,100489.78
2023-02-17T00:10:45.479Z,100482.16
2023-02-17T00:13:12.432Z,100484.63
2023-02-17T00:15:39.886Z,100474.25
2023-02-17T00:18:06.815Z,100484.56
2023-02-17T00:20:34.272Z,100480.81
2023-02-17T00:23:01.162Z,100476.75
2023-02-17T00:25:28.344Z,100474.53
2023-02-17T00:27:55.291Z,100480.50
2023-02-17T00:30:23.171Z,100477.88
2023-02-17T00:32:50.096Z,100468.25
2023-02-17T00:35:17.383Z,100472.44
2023-02-17T00:37:45.736Z,100476.22
2023-02-17T00:40:13.759Z,100475.72
2023-02-17T00:42:43.177Z,100468.75
2023-02-17T00:45:10.371Z,100458.63
2023-02-17T00:47:37.227Z,100465.19
2023-02-17T00:50:04.893Z,100459.31
2023-02-17T00:52:31.837Z,100462.72
2023-02-17T00:54:58.996Z,100455.25
2023-02-17T00:57:26.472Z,100456.69
2023-02-17T00:59:56.821Z,100460.44
2023-02-17T01:02:23.750Z,100452.06
2023-02-17T01:04:53.526Z,100437.63
2023-02-17T01:07:22.763Z,100445.59
2023-02-17T01:09:50.457Z,100452.03
2023-02-17T01:12:17.383Z,100435.94
2023-02-17T01:14:44.601Z,100441.22
2023-02-17T01:17:11.557Z,100434.81
2023-02-17T01:19:38.747Z,100427.31
2023-02-17T01:22:07.775Z,100429.50
2023-02-17T01:24:35.254Z,100429.84
2023-02-17T01:27:03.094Z,100432.47
2023-02-17T01:29:30.254Z,100421.56
2023-02-17T01:31:59.757Z,100424.38
2023-02-17T01:34:30.014Z,100424.06
2023-02-17T01:36:56.933Z,100420.56
2023-02-17T01:39:24.295Z,100416.41
2023-02-17T01:41:51.240Z,100423.06
2023-02-17T01:44:22.022Z,100421.53
2023-02-17T01:46:52.155Z,100422.63
2023-02-17T01:49:30.779Z,100422.88
2023-02-17T01:52:04.026Z,100413.50
2023-02-17T01:54:36.104Z,100419.28
2023-02-17T01:57:03.324Z,100415.25
2023-02-17T01:59:31.204Z,100420.25
2023-02-17T02:02:03.249Z,100424.88
2023-02-17T02:04:32.661Z,100423.66
2023-02-17T02:06:59.768Z,100423.66
2023-02-17T02:09:33.118Z,100420.16
2023-02-17T02:12:00.330Z,100422.88
2023-02-17T02:14:31.852Z,100410.72
2023-02-17T02:16:58.794Z,100414.84
2023-02-17T02:19:42.848Z,100412.47
2023-02-17T02:22:10.890Z,100403.41
2023-02-17T02:24:58.671Z,100394.91
2023-02-17T02:27:25.563Z,100389.47
2023-02-17T02:29:52.687Z,100387.94
2023-02-17T02:32:25.704Z,100379.78
2023-02-17T02:35:01.063Z,100370.84
2023-02-17T02:37:32.537Z,100375.44
2023-02-17T02:40:01.398Z,100363.34
2023-02-17T02:42:31.250Z,100371.59
2023-02-17T02:44:58.580Z,100369.31
2023-02-17T02:47:44.549Z,100380.66
2023-02-17T02:50:19.589Z,100366.59
2023-02-17T02:53:06.436Z,100370.41
2023-02-17T02:55:39.872Z,100371.94
2023-02-17T02:58:12.882Z,100375.00
2023-02-17T03:00:48.876Z,100366.38
2023-02-17T03:03:26.364Z,100377.28
2023-02-17T03:05:57.338Z,100373.69
2023-02-17T03:08:43.186Z,100370.75
2023-02-17T03:11:10.468Z,100367.91
2023-02-17T03:13:41.114Z,100370.88
2023-02-17T03:16:14.638Z,100374.38
2023-02-17T03:18:44.534Z,100369.53
2023-02-17T03:21:15.709Z,100375.22
2023-02-17T03:23:43.421Z,100377.94
2023-02-17T03:26:10.634Z,100375.66
2023-02-17T03:28:37.575Z,100380.78
2023-02-17T03:31:04.837Z,100373.16
2023-02-17T03:33:31.806Z,100382.19
2023-02-17T03:35:59.039Z,100371.94
2023-02-17T03:38:25.909Z,100376.38
2023-02-17T03:40:53.852Z,100369.19
2023-02-17T03:43:20.808Z,100371.25
2023-02-17T03:45:47.977Z,100369.78
2023-02-17T03:48:17.241Z,100368.91
2023-02-17T03:50:44.861Z,100376.13
2023-02-17T03:53:12.147Z,100374.13
2023-02-17T03:55:39.313Z,100379.06
2023-02-17T03:58:06.179Z,100377.50
2023-02-17T04:00:33.345Z,100379.91
2023-02-17T04:03:00.515Z,100371.59
2023-02-17T04:05:27.802Z,100383.38
2023-02-17T04:07:54.600Z,100372.09
2023-02-17T04:10:21.753Z,100382.00
2023-02-17T04:12:48.647Z,100364.16
2023-02-17T04:15:18.395Z,100372.09
2023-02-17T04:17:45.272Z,100368.97
2023-02-17T04:20:12.638Z,100363.06
2023-02-17T04:22:39.552Z,100376.19
2023-02-17T04:25:06.814Z,100366.63
2023-02-17T04:27:33.671Z,100366.81
2023-02-17T04:30:00.883Z,100373.81
2023-02-17T04:32:27.833Z,100372.63
2023-02-17T04:34:55.031Z,100375.63
2023-02-17T04:37:22.084Z,100363.66
2023-02-17T04:39:49.302Z,100366.25
2023-02-17T04:42:16.150Z,100369.31
2023-02-17T04:44:43.350Z,100364.28
2023-02-17T04:47:10.224Z,100359.88
2023-02-17T04:49:37.424Z,100362.28
2023-02-17T04:52:04.512Z,100365.34
2023-02-17T04:54:31.665Z,100356.25
2023-02-17T04:56:58.585Z,100366.31
2023-02-17T04:59:25.904Z,100362.34
2023-02-17T05:01:55.119Z,100359.34
2023-02-17T05:04:22.377Z,100357.84
2023-02-17T05:06:49.282Z,100352.97
2023-02-17T05:09:16.441Z,100355.25
2023-02-17T05:11:43.294Z,100348.59
2023-02-17T05:14:10.546Z,100349.53
2023-02-17T05:16:37.540Z,100336.63
2023-02-17T05:19:04.748Z,100336.78
2023-02-17T05:21:31.781Z,100329.66
2023-02-17T05:23:59.284Z,100329.34
2023-02-17T05:26:26.385Z,100321.47
2023-02-17T05:28:53.754Z,100313.41
2023-02-17T05:31:20.799Z,100305.03
2023-02-17T05:33:48.075Z,100305.75
2023-02-17T05:36:15.220Z,100298.59
2023-02-17T05:38:42.511Z,100312.66
2023-02-17T05:41:09.443Z,100311.69
2023-02-17T05:43:36.671Z,100312.09
2023-02-17T05:46:04.367Z,100317.22
2023-02-17T05:48:32.209Z,100313.44
2023-02-17T05:50:59.132Z,100304.03
2023-02-17T05:53:26.683Z,100298.44
2023-02-17T05:55:53.554Z,100304.84
2023-02-17T05:58:20.856Z,100307.44
2023-02-17T06:00:48.328Z,100307.66
2023-02-17T06:03:15.921Z,100308.16
2023-02-17T06:05:45.460Z,100311.06
2023-02-17T06:08:12.666Z,100311.72
2023-02-17T06:10:39.806Z,100306.72
2023-02-17T06:13:06.961Z,100313.44
2023-02-17T06:15:34.018Z,100312.06
2023-02-17T06:18:01.449Z,100313.75
2023-02-17T06:20:28.327Z,100316.81
2023-02-17T06:22:58.457Z,100313.34
2023-02-17T06:25:25.369Z,100312.00
2023-02-17T06:27:54.360Z,100310.97
2023-02-17T06:30:21.656Z,100309.19
2023-02-17T06:32:48.914Z,100306.13
2023-02-17T06:35:15.831Z,100306.88
2023-02-17T06:37:43.080Z,100308.44
2023-02-17T06:40:10.548Z,100313.50
2023-02-17T06:42:37.820Z,100325.66
2023-02-17T06:45:06.201Z,100326.88
2023-02-17T06:47:36.805Z,100322.44
2023-02-17T06:50:03.765Z,100330.44
2023-02-17T06:52:31.481Z,100333.56
2023-02-17T06:54:58.567Z,100330.56
2023-02-17T06:57:28.474Z,100328.41
2023-02-17T06:59:55.376Z,100320.66
2023-02-17T07:02:25.039Z,100319.66
2023-02-17T07:04:52.074Z,100325.25
2023-02-17T07:07:19.335Z,100331.31
2023-02-17T07:09:46.220Z,100331.59
2023-02-17T07:12:13.634Z,100327.88
2023-02-17T07:14:40.582Z,100328.88
2023-02-17T07:17:07.761Z,100325.66
2023-02-17T07:19:34.748Z,100323.47
2023-02-17T07:22:02.677Z,100329.75
2023-02-17T07:24:29.730Z,100322.41
2023-02-17T07:26:57.172Z,100337.13
2023-02-17T07:29:24.170Z,100338.63
2023-02-17T07:31:51.492Z,100342.03
2023-02-17T07:34:18.553Z,100338.59
2023-02-17T07:36:45.851Z,100343.81
2023-02-17T07:39:13.001Z,100334.72
2023-02-17T07:41:42.478Z,100325.47
2023-02-17T07:44:13.701Z,100329.66
2023-02-17T07:46:40.943Z,100337.09
2023-02-17T07:49:10.121Z,100337.66
2023-02-17T07:51:37.458Z,100325.44
2023-02-17T07:54:04.435Z,100326.06
2023-02-17T07:56:33.802Z,100328.13
2023-02-17T07:59:00.898Z,100325.63
2023-02-17T08:01:28.075Z,100323.72
2023-02-17T08:03:56.123Z,100329.25
2023-02-17T08:06:24.529Z,100326.78
2023-02-17T08:09:13.128Z,100331.09
2023-02-17T08:11:59.621Z,100331.09
2023-02-17T08:14:28.039Z,100321.66
2023-02-17T08:16:55.796Z,100330.22
2023-02-17T08:19:22.747Z,100336.00
2023-02-17T08:21:50.062Z,100317.09
2023-02-17T08:24:16.976Z,100322.97
2023-02-17T08:26:47.156Z,100325.47
2023-02-17T08:29:14.139Z,100325.19
2023-02-17T08:31:41.833Z,100317.09
2023-02-17T08:34:09.831Z,100320.59
2023-02-17T08:36:40.090Z,100308.69
2023-02-17T08:39:10.746Z,100307.72
2023-02-17T08:41:38.752Z,100293.50
2023-02-17T08:44:10.677Z,100298.88
2023-02-17T08:46:38.235Z,100308.25
2023-02-17T08:49:05.743Z,100297.53
2023-02-17T08:51:36.296Z,100301.50
2023-02-17T08:54:04.608Z,100302.66
2023-02-17T08:56:34.726Z,100293.94
2023-02-17T08:59:01.679Z,100310.81
2023-02-17T09:01:29.290Z,100294.25
2023-02-17T09:03:57.277Z,100301.56
2023-02-17T09:06:24.624Z,100309.91
2023-02-17T09:08:51.636Z,100295.84
2023-02-17T09:11:20.901Z,100300.13
2023-02-17T09:13:50.578Z,100287.81
2023-02-17T09:16:20.811Z,100281.28
2023-02-17T09:18:47.907Z,100287.84
2023-02-17T09:21:15.180Z,100287.34
2023-02-17T09:23:44.757Z,100280.53
2023-02-17T09:26:13.180Z,100282.56
2023-02-17T09:28:40.759Z,100275.00
2023-02-17T09:31:11.232Z,100277.78
2023-02-17T09:33:41.350Z,100273.50
2023-02-17T09:36:10.181Z,100276.03
2023-02-17T09:38:41.810Z,100276.25
2023-02-17T09:41:15.201Z,100271.47
2023-02-17T09:43:42.870Z,100268.97
2023-02-17T09:46:13.182Z,100276.03
2023-02-17T09:48:43.586Z,100265.72
2023-02-17T09:51:16.161Z,100272.25
2023-02-17T09:53:48.637Z,100263.44
2023-02-17T09:56:19.698Z,100259.91
2023-02-17T09:58:48.883Z,100257.66
2023-02-17T10:01:18.277Z,100263.19
2023-02-17T10:03:48.290Z,100259.66
2023-02-17T10:06:20.986Z,100269.47
2023-02-17T10:08:51.520Z,100261.16
2023-02-17T10:11:23.683Z,100258.66
2023-02-17T10:13:52.101Z,100267.47
2023-02-17T10:16:22.944Z,100254.41
2023-02-17T10:18:58.150Z,100243.84
2023-02-17T10:21:31.252Z,100232.50
2023-02-17T10:23:58.672Z,100242.06
2023-02-17T10:26:45.300Z,100218.63
2023-02-17T10:29:34.589Z,100211.81
2023-02-17T10:32:32.029Z,100211.56
2023-02-17T10:35:01.976Z,100220.03
2023-02-17T10:37:48.462Z,100221.22
2023-02-17T10:40:22.952Z,100197.69
2023-02-17T10:42:53.119Z,100206.16
2023-02-17T10:45:25.533Z,100206.84
2023-02-17T10:47:58.843Z,100215.13
2023-02-17T10:50:26.567Z,100196.38
2023-02-17T10:52:54.135Z,100195.81
2023-02-17T10:55:34.164Z,100201.88
2023-02-17T10:58:15.964Z,100190.28
2023-02-17T11:00:43.360Z,100191.75
2023-02-17T11:03:27.428Z,100196.75
2023-02-17T11:05:56.114Z,100193.53
2023-02-17T11:08:29.576Z,100189.19
2023-02-17T11:11:01.235Z,100170.97
2023-02-17T11:13:33.797Z,100167.63
2023-02-17T11:16:01.196Z,100164.28
2023-02-17T11:18:31.629Z,100156.38
2023-02-17T11:21:16.818Z,100166.97
2023-02-17T11:24:13.653Z,100161.16
2023-02-17T11:26:40.558Z,100141.66
2023-02-17T11:29:08.907Z,100173.59
2023-02-17T11:31:41.361Z,100159.44
2023-02-17T11:34:13.123Z,100159.13
2023-02-17T11:36:40.172Z,100171.75
2023-02-17T11:39:20.061Z,100155.53
2023-02-17T11:41:47.017Z,100166.66
2023-02-17T11:44:22.844Z,100158.78
2023-02-17T11:46:58.626Z,100172.69
2023-02-17T11:49:25.992Z,100154.97
2023-02-17T11:52:12.116Z,100144.13
2023-02-17T11:54:57.857Z,100150.16
2023-02-17T11:57:27.880Z,100149.28
2023-02-17T11:59:58.164Z,100127.88
2023-02-17T12:02:37.406Z,100125.84
2023-02-17T12:05:23.416Z,100131.56
2023-02-17T12:07:50.452Z,100132.16
2023-02-17T12:10:20.800Z,100121.56
2023-02-17T12:13:05.520Z,100104.06
2023-02-17T12:15:35.902Z,100117.44
2023-02-17T12:18:08.882Z,100116.06
2023-02-17T12:20:39.577Z,100124.72
2023-02-17T12:23:19.190Z,100128.03
2023-02-17T12:25:50.921Z,100128.38
2023-02-17T12:28:27.076Z,100124.66
2023-02-17T12:31:12.057Z,100138.00
2023-02-17T12:33:47.983Z,100129.13
2023-02-17T12:36:16.069Z,100124.78
2023-02-17T12:38:46.473Z,100127.78
2023-02-17T12:41:17.779Z,100120.34
2023-02-17T12:43:49.235Z,100115.63
2023-02-17T12:46:30.795Z,100130.72
2023-02-17T12:49:02.993Z,100110.72
2023-02-17T12:51:39.766Z,100096.19
2023-02-17T12:54:12.393Z,100103.16
2023-02-17T12:56:42.648Z,100117.59
2023-02-17T12:59:15.112Z,100089.31
2023-02-17T13:01:47.108Z,100095.28
2023-02-17T13:04:17.266Z,100088.50
2023-02-17T13:06:46.334Z,100082.88
2023-02-17T13:09:15.671Z,100090.38
2023-02-17T13:11:48.508Z,100092.94
2023-02-17T13:14:21.494Z,100074.53
2023-02-17T13:16:49.804Z,100084.53
2023-02-17T13:19:27.506Z,100095.41
2023-02-17T13:21:56.151Z,100081.50
2023-02-17T13:24:34.520Z,100073.09
2023-02-17T13:27:20.516Z,100073.41
2023-02-17T13:29:47.614Z,100066.25
2023-02-17T13:32:14.941Z,100071.63
2023-02-17T13:34:46.281Z,100073.56
2023-02-17T13:37:16.532Z,100093.09
2023-02-17T13:39:43.643Z,100072.94
2023-02-17T13:42:29.557Z,100071.47
2023-02-17T13:44:57.465Z,100059.16
2023-02-17T13:47:29.281Z,100054.56
2023-02-17T13:49:57.113Z,100064.91
2023-02-17T13:52:26.559Z,100041.13
2023-02-17T13:55:04.153Z,100045.84
2023-02-17T13:57:36.013Z,100049.06
2023-02-17T14:00:18.253Z,100036.13
2023-02-17T14:02:53.477Z,100062.44
2023-02-17T14:05:27.671Z,100030.34
2023-02-17T14:07:58.648Z,100034.72
2023-02-17T14:10:26.774Z,100016.97
2023-02-17T14:12:54.762Z,100019.00
2023-02-17T14:15:23.654Z,100015.78
2023-02-17T14:17:50.890Z,100023.59
2023-02-17T14:20:44.360Z,99999.34
2023-02-17T14:23:13.174Z,100011.94
2023-02-17T14:25:41.610Z,100009.84
2023-02-17T14:28:23.212Z,100007.78
2023-02-17T14:30:51.363Z,100000.53
2023-02-17T14:33:20.682Z,100004.59
2023-02-17T14:35:52.132Z,100004.28
2023-02-17T14:38:24.799Z,99995.09
2023-02-17T14:40:53.529Z,100000.88
2023-02-17T14:43:20.849Z,99999.81
2023-02-17T14:45:48.210Z,100012.88
2023-02-17T14:48:19.083Z,100005.00
2023-02-17T14:50:46.694Z,100005.22
2023-02-17T14:53:23.247Z,100006.59
2023-02-17T14:55:53.733Z,100006.91
2023-02-17T14:58:24.741Z,99999.84
2023-02-17T15:00:51.946Z,99985.75
2023-02-17T15:03:19.702Z,99977.59
2023-02-17T15:05:49.405Z,99983.16
2023-02-17T15:08:22.254Z,99992.94
2023-02-17T15:10:50.587Z,99972.59
2023-02-17T15:13:19.272Z,99973.34
2023-02-17T15:15:49.776Z,99975.59
2023-02-17T15:18:21.114Z,99980.09
2023-02-17T15:20:52.316Z,99972.06
2023-02-17T15:23:21.754Z,99975.28
2023-02-17T15:25:49.485Z,99959.56
2023-02-17T15:28:27.397Z,99968.56
2023-02-17T15:30:55.841Z,99960.94
2023-02-17T15:33:24.190Z,99953.22
2023-02-17T15:35:56.165Z,99953.03
2023-02-17T15:38:24.352Z,99968.53
2023-02-17T15:40:51.391Z,99959.22
2023-02-17T15:43:22.667Z,99967.78
2023-02-17T15:45:50.535Z,99965.75
2023-02-17T15:48:22.904Z,99948.44
2023-02-17T15:50:51.352Z,99954.09
2023-02-17T15:53:18.847Z,99955.59
2023-02-17T15:55:46.780Z,99960.72
2023-02-17T15:58:16.738Z,99951.84
2023-02-17T16:00:46.167Z,99938.47
2023-02-17T16:03:16.571Z,99944.13
2023-02-17T16:05:44.239Z,99930.44
2023-02-17T16:08:12.316Z,99933.53
2023-02-17T16:10:42.137Z,99932.56
2023-02-17T16:13:12.717Z,99921.56
2023-02-17T16:15:39.919Z,99929.78
2023-02-17T16:18:09.699Z,99923.59
2023-02-17T16:20:36.716Z,99918.88
2023-02-17T16:23:04.055Z,99899.53
2023-02-17T16:25:33.212Z,99906.81
2023-02-17T16:28:00.771Z,99899.19
2023-02-17T16:30:31.139Z,99911.72
2023-02-17T16:32:59.327Z,99912.25
2023-02-17T16:35:27.971Z,99906.47
2023-02-17T16:38:00.120Z,99899.41
2023-02-17T16:40:28.841Z,99893.53
2023-02-17T16:42:56.554Z,99889.56
2023-02-17T16:45:36.376Z,99890.22
2023-02-17T16:48:05.550Z,99902.94
2023-02-17T16:50:34.816Z,99890.66
2023-02-17T16:53:04.729Z,99892.19
2023-02-17T16:55:35.721Z,99882.09
2023-02-17T16:58:12.899Z,99879.00
2023-02-17T17:00:40.588Z,99874.41
2023-02-17T17:03:08.942Z,99876.97
2023-02-17T17:05:37.182Z,99863.91
2023-02-17T17:08:05.221Z,99868.94
2023-02-17T17:10:33.635Z,99880.94
2023-02-17T17:13:02.681Z,99865.72
2023-02-17T17:15:30.179Z,99859.13
2023-02-17T17:18:02.332Z,99874.94
2023-02-17T17:20:34.538Z,99879.09
2023-02-17T17:23:03.829Z,99875.25
2023-02-17T17:25:32.328Z,99866.16
2023-02-17T17:28:00.064Z,99874.06
2023-02-17T17:30:29.285Z,99883.72
2023-02-17T17:32:56.913Z,99889.72
2023-02-17T17:35:24.308Z,99881.47
2023-02-17T17:37:52.286Z,99884.13
2023-02-17T17:40:22.893Z,99882.53
2023-02-17T17:42:51.276Z,99884.97
2023-02-17T17:45:19.970Z,99879.19
2023-02-17T17:47:49.896Z,99870.31
2023-02-17T17:50:20.075Z,99885.84
2023-02-17T17:52:48.356Z,99893.88
2023-02-17T17:55:16.194Z,99891.09
2023-02-17T17:57:44.317Z,99888.94
2023-02-17T18:00:16.782Z,99889.78
2023-02-17T18:02:45.011Z,99888.31
2023-02-17T18:05:13.611Z,99890.75
2023-02-17T18:07:45.463Z,99896.44
2023-02-17T18:10:13.840Z,99891.84
2023-02-17T18:12:46.531Z,99889.16
2023-02-17T18:15:15.361Z,99896.09
2023-02-17T18:17:46.990Z,99905.28
2023-02-17T18:20:14.862Z,99890.66
2023-02-17T18:22:43.083Z,99890.13
2023-02-17T18:25:11.488Z,99895.03
2023-02-17T18:27:42.554Z,99902.50
2023-02-17T18:30:13.110Z,99889.44
2023-02-17T18:32:41.627Z,99902.72
2023-02-17T18:35:10.723Z,99895.56
2023-02-17T18:37:41.355Z,99892.97
2023-02-17T18:40:14.174Z,99893.41
2023-02-17T18:42:46.000Z,99881.75
2023-02-17T18:45:14.637Z,99885.38
2023-02-17T18:47:45.074Z,99889.53
2023-02-17T18:50:13.861Z,99873.81
2023-02-17T18:52:43.145Z,99871.56
2023-02-17T18:55:11.389Z,99870.63
2023-02-17T18:57:45.344Z,99869.78
2023-02-17T19:00:14.009Z,99867.94
2023-02-17T19:02:45.650Z,99869.53
2023-02-17T19:05:13.680Z,99851.81
2023-02-17T19:07:41.696Z,99863.88
2023-02-17T19:10:12.989Z,99868.88
2023-02-17T19:12:42.774Z,99856.91
2023-02-17T19:15:11.326Z,99863.22
2023-02-17T19:17:39.947Z,99848.03
2023-02-17T19:20:08.327Z,99844.31
2023-02-17T19:22:36.785Z,99836.19
2023-02-17T19:25:04.955Z,99837.69
2023-02-17T19:27:34.815Z,99849.97
2023-02-17T19:30:02.657Z,99849.66
2023-02-17T19:32:31.274Z,99849.88
2023-02-17T19:34:58.588Z,99843.78
2023-02-17T19:37:28.728Z,99849.03
2023-02-17T19:39:56.988Z,99865.16
2023-02-17T19:42:26.343Z,99862.28
2023-02-17T19:44:54.370Z,99854.69
2023-02-17T19:47:21.988Z,99857.91
2023-02-17T19:49:52.017Z,99887.09
2023-02-17T19:52:21.624Z,99863.78
2023-02-17T19:54:50.637Z,99861.84
2023-02-17T19:57:19.060Z,99852.97
2023-02-17T19:59:46.796Z,99864.00
2023-02-17T20:02:17.493Z,99844.84
2023-02-17T20:04:45.486Z,99849.13
2023-02-17T20:07:16.126Z,99854.22
2023-02-17T20:09:44.202Z,99870.81
2023-02-17T20:12:12.506Z,99872.69
2023-02-17T20:14:40.411Z,99899.41
2023-02-17T20:17:08.132Z,99897.91
2023-02-17T20:19:39.172Z,99900.69
2023-02-17T20:22:07.919Z,99905.09
2023-02-17T20:24:39.062Z,99901.13
2023-02-17T20:27:10.308Z,99893.75
2023-02-17T20:29:38.078Z,99896.31
2023-02-17T20:32:07.358Z,99903.38
2023-02-17T20:34:41.085Z,99905.19
2023-02-17T20:37:12.693Z,99913.72
2023-02-17T20:39:41.500Z,99912.94
2023-02-17T20:42:09.690Z,99914.31
2023-02-17T20:44:40.035Z,99909.72
2023-02-17T20:47:08.403Z,99919.66
2023-02-17T20:49:37.808Z,99909.16
2023-02-17T20:52:06.348Z,99899.19
2023-02-17T20:54:34.816Z,99894.31
2023-02-17T20:57:12.052Z,99909.31
2023-02-17T20:59:40.106Z,99908.03
2023-02-17T21:02:08.210Z,99898.81
2023-02-17T21:04:39.038Z,99916.78
2023-02-17T21:07:10.156Z,99914.91
2023-02-17T21:09:37.513Z,99912.69
2023-02-17T21:12:09.007Z,99920.00
2023-02-17T21:14:36.471Z,99912.69
2023-02-17T21:17:04.294Z,99919.53
2023-02-17T21:19:31.877Z,99931.34
2023-02-17T21:21:59.797Z,99928.56
2023-02-17T21:24:27.471Z,99926.22
2023-02-17T21:26:57.182Z,99926.97
2023-02-17T21:29:26.414Z,99932.25
2023-02-17T21:31:54.676Z,99929.69
2023-02-17T21:34:21.857Z,99924.56
2023-02-17T21:36:52.002Z,99925.34
2023-02-17T21:39:20.108Z,99911.41
2023-02-17T21:41:47.934Z,99924.97
2023-02-17T21:44:33.399Z,99925.22
2023-02-17T21:47:03.364Z,99917.63
2023-02-17T21:49:30.418Z,99926.09
2023-02-17T21:51:58.058Z,99928.34
2023-02-17T21:54:25.469Z,99933.16
2023-02-17T21:56:52.985Z,99927.09
2023-02-17T21:59:22.715Z,99923.84
2023-02-17T22:01:52.298Z,99923.31
2023-02-17T22:04:20.032Z,99926.56
2023-02-17T22:06:47.836Z,99928.47
2023-02-17T22:09:18.069Z,99929.97
2023-02-17T22:11:46.110Z,99927.97
2023-02-17T22:14:14.577Z,99932.50
2023-02-17T22:16:42.010Z,99932.44
2023-02-17T22:19:10.670Z,99933.09
2023-02-17T22:21:38.693Z,99933.59
2023-02-17T22:24:05.855Z,99935.03
2023-02-17T22:26:33.112Z,99922.31
2023-02-17T22:29:00.061Z,99922.69
2023-02-17T22:31:28.893Z,99919.38
2023-02-17T22:33:56.978Z,99910.09
2023-02-17T22:36:25.183Z,99901.56
2023-02-17T22:38:52.684Z,99904.56
2023-02-17T22:41:21.733Z,99888.19
2023-02-17T22:43:48.903Z,99888.81
2023-02-17T22:46:18.194Z,99889.69
2023-02-17T22:48:46.336Z,99880.38
2023-02-17T22:51:15.816Z,99886.25
2023-02-17T22:53:44.980Z,99897.28
2023-02-17T22:56:17.554Z,99891.81
2023-02-17T22:58:44.489Z,99910.22
2023-02-17T23:01:15.572Z,99907.44
2023-02-17T23:03:42.584Z,99913.22
2023-02-17T23:06:20.711Z,99912.78
2023-02-17T23:08:47.904Z,99897.59
2023-02-17T23:11:19.525Z,99906.38
2023-02-17T23:13:46.372Z,99898.13
2023-02-17T23:16:18.666Z,99899.00
2023-02-17T23:18:45.538Z,99887.97
2023-02-17T23:21:13.382Z,99894.06
2023-02-17T23:23:40.264Z,99904.25
2023-02-17T23:26:07.941Z,99903.25
2023-02-17T23:28:35.023Z,99902.31
2023-02-17T23:31:02.350Z,99906.38
2023-02-17T23:33:29.263Z,99902.41
2023-02-17T23:35:56.652Z,99900.91
2023-02-17T23:38:23.775Z,99901.56
2023-02-17T23:40:53.688Z,99903.59
2023-02-17T23:43:21.718Z,99905.09
2023-02-17T23:45:49.362Z,99905.28
2023-02-17T23:48:16.696Z,99902.72
2023-02-17T23:50:43.957Z,99910.31
2023-02-17T23:53:10.870Z,99901.13
2023-02-17T23:55:40.108Z,99896.22
2023-02-17T23:58:07.032Z,99892.47
